Decoded Metar for LFQB (TROYES in FRANCE) (IATA:QYR) | Meteo·Mobile Aviation Weather
aviador You're here:

LFQB Decoded Metar

TROYES in FRANCE
Report Time2018-10-22 14:00:00
UTC Time2018-10-22 14:23:55
Flight Rules vfr VFR
Wind360° at 12 kt
W.Decomp.*RWY 35: 11.8 kt HW 2.1 kt RCW
RWY 05: 7.7 kt HW 9.2 kt LCW
Visibility9999 m
Phenomena:N/A
Clouds:Few 028 Hf
Expected CloudBase > 2,800 ft AGL from Temp-Dew spread
CeilingNone
Temp17°C (ISA +3)
Dew Point10°C (64% RH)
AAT12.8°C
QNH1029 hPa
Density Alt341 ft
Elevation387 ft
Report Wrong Elevation
Raw Report
LFQB 221400Z AUTO 36012KT 9999 FEW028 17/10 Q1029=

Extra information for LFQB:More info

Metar Taf Metar & Taf Last 4 Metars F.Rules Stats Wind Profile Meteogram Temp Stats Airport Information Weather charts Add Link Nearby VenuesMetar ALERT Operation Metar Decoded Social comments